createdAt,value
2024-03-05T00:00:11.604Z,32.00
2024-03-05T00:02:39.863Z,24.45
2024-03-05T00:05:08.002Z,29.67
2024-03-05T00:10:04.167Z,26.40
2024-03-05T00:12:31.647Z,27.88
2024-03-05T00:14:58.108Z,25.88
2024-03-05T00:17:25.102Z,30.00
2024-03-05T00:19:52.078Z,26.70
2024-03-05T00:22:19.375Z,28.48
2024-03-05T00:24:45.875Z,28.58
2024-03-05T00:27:12.428Z,27.05
2024-03-05T00:29:39.156Z,30.65
2024-03-05T00:32:06.261Z,26.77
2024-03-05T00:34:32.768Z,32.10
2024-03-05T00:36:59.265Z,31.20
2024-03-05T00:39:25.785Z,31.40
2024-03-05T00:41:52.222Z,37.38
2024-03-05T00:44:18.700Z,30.38
2024-03-05T00:46:45.168Z,29.00
2024-03-05T00:49:13.871Z,28.58
2024-03-05T00:51:41.533Z,29.23
2024-03-05T00:54:07.970Z,31.33
2024-03-05T00:56:34.660Z,33.15
2024-03-05T00:59:01.329Z,29.63
2024-03-05T01:01:27.841Z,32.67
2024-03-05T01:03:56.508Z,32.08
2024-03-05T01:06:22.973Z,29.50
2024-03-05T01:08:49.420Z,28.60
2024-03-05T01:11:15.931Z,29.60
2024-03-05T01:13:43.198Z,33.13
2024-03-05T01:16:10.820Z,31.33
2024-03-05T01:18:38.016Z,26.45
2024-03-05T01:21:07.562Z,28.15
2024-03-05T01:23:34.461Z,30.40
2024-03-05T01:26:01.480Z,30.70
2024-03-05T01:28:29.519Z,31.08
2024-03-05T01:31:00.194Z,32.47
2024-03-05T01:33:26.943Z,33.55
2024-03-05T01:35:55.179Z,28.85
2024-03-05T01:38:23.616Z,29.02
2024-03-05T01:40:50.272Z,28.17
2024-03-05T01:43:21.185Z,29.52
2024-03-05T01:45:49.279Z,30.65
2024-03-05T01:48:17.366Z,29.83
2024-03-05T01:50:44.781Z,28.85
2024-03-05T01:53:12.500Z,27.85
2024-03-05T01:55:40.062Z,35.28
2024-03-05T01:58:08.126Z,29.83
2024-03-05T02:00:37.416Z,31.08
2024-03-05T02:03:04.104Z,33.97
2024-03-05T02:05:30.648Z,32.88
2024-03-05T02:07:58.852Z,35.67
2024-03-05T02:10:25.794Z,30.63
2024-03-05T02:12:53.295Z,29.90
2024-03-05T02:15:22.060Z,32.25
2024-03-05T02:17:48.764Z,35.33
2024-03-05T02:20:15.400Z,32.38
2024-03-05T02:22:44.078Z,36.40
2024-03-05T02:25:11.283Z,30.00
2024-03-05T02:27:38.333Z,31.80
2024-03-05T02:30:11.583Z,36.65
2024-03-05T02:32:43.361Z,32.67
2024-03-05T02:35:10.620Z,38.42
2024-03-05T02:37:40.796Z,33.38
2024-03-05T02:40:09.709Z,31.13
2024-03-05T02:42:41.170Z,31.17
2024-03-05T02:47:35.748Z,35.30
2024-03-05T02:50:02.387Z,31.92
2024-03-05T02:52:29.762Z,35.42
2024-03-05T02:54:56.461Z,35.25
2024-03-05T02:57:32.593Z,36.88
2024-03-05T02:59:59.155Z,33.60
2024-03-05T03:02:25.592Z,37.97
2024-03-05T03:04:52.609Z,33.05
2024-03-05T03:07:19.857Z,32.75
2024-03-05T03:09:47.603Z,35.95
2024-03-05T03:12:14.262Z,31.50
2024-03-05T03:14:45.367Z,33.40
2024-03-05T03:17:12.434Z,31.92
2024-03-05T03:19:38.891Z,38.50
2024-03-05T03:22:05.913Z,32.17
2024-03-05T03:24:32.407Z,31.23
2024-03-05T03:26:58.841Z,32.83
2024-03-05T03:29:27.560Z,32.80
2024-03-05T03:31:57.269Z,29.33
2024-03-05T03:34:23.828Z,30.35
2024-03-05T03:36:50.384Z,35.88
2024-03-05T03:39:24.810Z,30.73
2024-03-05T03:41:56.492Z,31.10
2024-03-05T03:44:23.607Z,31.63
2024-03-05T03:46:51.032Z,34.13
2024-03-05T03:49:21.717Z,33.03
2024-03-05T03:51:48.682Z,32.53
2024-03-05T03:54:15.133Z,29.38
2024-03-05T03:56:41.763Z,33.22
2024-03-05T03:59:10.890Z,28.70
2024-03-05T04:01:37.878Z,31.73
2024-03-05T04:04:04.779Z,31.92
2024-03-05T04:06:32.264Z,32.80
2024-03-05T04:08:58.738Z,29.63
2024-03-05T04:11:25.494Z,27.33
2024-03-05T04:13:52.077Z,35.35
2024-03-05T04:16:19.148Z,30.58
2024-03-05T04:18:46.887Z,27.35
2024-03-05T04:21:13.653Z,31.45
2024-03-05T04:23:40.414Z,31.83
2024-03-05T04:26:14.512Z,32.97
2024-03-05T04:28:50.529Z,27.45
2024-03-05T04:31:18.772Z,30.50
2024-03-05T04:33:47.975Z,33.80
2024-03-05T04:36:15.891Z,29.85
2024-03-05T04:38:43.514Z,31.13
2024-03-05T04:41:11.724Z,31.60
2024-03-05T04:43:42.485Z,31.48
2024-03-05T04:46:09.459Z,28.95
2024-03-05T04:48:36.096Z,30.83
2024-03-05T04:51:02.658Z,29.60
2024-03-05T04:53:29.254Z,32.30
2024-03-05T04:55:58.608Z,29.40
2024-03-05T04:58:25.440Z,32.03
2024-03-05T05:00:51.977Z,30.08
2024-03-05T05:03:19.413Z,34.67
2024-03-05T05:05:46.115Z,34.53
2024-03-05T05:08:12.813Z,33.28
2024-03-05T05:10:39.429Z,29.85
2024-03-05T05:13:06.380Z,37.15
2024-03-05T05:15:33.833Z,31.58
2024-03-05T05:18:00.623Z,33.45
2024-03-05T05:20:28.559Z,33.38
2024-03-05T05:22:55.151Z,34.28
2024-03-05T05:25:23.042Z,29.40
2024-03-05T05:27:49.996Z,36.08
2024-03-05T05:30:19.758Z,28.75
2024-03-05T05:32:48.986Z,36.85
2024-03-05T05:35:16.427Z,34.30
2024-03-05T05:37:43.926Z,31.17
2024-03-05T05:40:12.044Z,36.72
2024-03-05T05:42:39.351Z,29.27
2024-03-05T05:45:10.047Z,34.83
2024-03-05T05:47:50.146Z,32.85
2024-03-05T05:50:19.507Z,30.88
2024-03-05T05:52:48.255Z,34.03
2024-03-05T05:55:16.535Z,32.05
2024-03-05T05:57:49.990Z,31.88
2024-03-05T06:00:35.058Z,34.30
2024-03-05T06:03:02.619Z,39.30
2024-03-05T06:05:32.132Z,30.42
2024-03-05T06:08:02.323Z,33.10
2024-03-05T06:10:30.911Z,32.72
2024-03-05T06:12:58.100Z,32.10
2024-03-05T06:15:25.368Z,33.83
2024-03-05T06:17:52.967Z,30.25
2024-03-05T06:20:19.659Z,29.05
2024-03-05T06:22:46.713Z,34.22
2024-03-05T06:25:17.575Z,30.80
2024-03-05T06:27:44.229Z,31.95
2024-03-05T06:30:19.615Z,31.70
2024-03-05T06:32:48.987Z,30.15
2024-03-05T06:35:16.765Z,34.53
2024-03-05T06:37:48.013Z,33.75
2024-03-05T06:43:04.300Z,32.55
2024-03-05T06:45:31.412Z,33.28
2024-03-05T06:48:11.023Z,31.77
2024-03-05T06:50:43.872Z,35.20
2024-03-05T06:53:30.458Z,33.03
2024-03-05T06:56:16.182Z,31.60
2024-03-05T06:58:45.422Z,32.40
2024-03-05T07:01:12.879Z,31.20
2024-03-05T07:03:40.511Z,29.20
2024-03-05T07:06:08.329Z,33.25
2024-03-05T07:08:41.344Z,35.63
2024-03-05T07:11:10.757Z,32.33
2024-03-05T07:13:39.141Z,36.10
2024-03-05T07:16:08.914Z,31.15
2024-03-05T07:18:37.158Z,34.08
2024-03-05T07:21:04.812Z,34.22
2024-03-05T07:23:31.490Z,32.30
2024-03-05T07:25:58.332Z,32.38
2024-03-05T07:28:27.175Z,29.48
2024-03-05T07:30:54.424Z,32.63
2024-03-05T07:33:24.333Z,33.03
2024-03-05T07:35:51.074Z,34.53
2024-03-05T07:38:18.642Z,33.42
2024-03-05T07:40:48.209Z,31.05
2024-03-05T07:43:14.965Z,30.80
2024-03-05T07:45:41.658Z,30.25
2024-03-05T07:48:08.382Z,33.30
2024-03-05T07:50:35.098Z,31.58
2024-03-05T07:53:01.684Z,32.88
2024-03-05T07:55:32.139Z,29.10
2024-03-05T07:58:02.796Z,27.02
2024-03-05T08:00:29.327Z,25.45
2024-03-05T08:02:58.173Z,27.35
2024-03-05T08:05:24.924Z,28.95
2024-03-05T08:07:52.109Z,25.10
2024-03-05T08:10:18.671Z,24.10
2024-03-05T08:12:47.031Z,23.73
2024-03-05T08:15:17.545Z,23.10
2024-03-05T08:17:47.497Z,23.87
2024-03-05T08:20:15.647Z,22.70
2024-03-05T08:22:43.597Z,23.27
2024-03-05T08:25:17.476Z,23.45
2024-03-05T08:27:48.465Z,24.55
2024-03-05T08:30:23.198Z,21.30
2024-03-05T08:32:50.810Z,19.10
2024-03-05T08:35:17.276Z,19.08
2024-03-05T08:37:48.060Z,19.50
2024-03-05T08:40:20.640Z,20.27
2024-03-05T08:42:49.184Z,17.25
2024-03-05T08:45:21.082Z,20.75
2024-03-05T08:47:52.386Z,21.52
2024-03-05T08:50:19.255Z,20.33
2024-03-05T08:52:46.078Z,18.65
2024-03-05T08:55:14.223Z,18.15
2024-03-05T08:57:41.425Z,18.10
2024-03-05T09:00:16.710Z,17.83
2024-03-05T09:02:53.696Z,17.08
2024-03-05T09:05:21.052Z,21.38
2024-03-05T09:07:47.647Z,17.77
2024-03-05T09:10:16.425Z,17.67
2024-03-05T09:12:42.877Z,14.82
2024-03-05T09:15:09.981Z,18.15
2024-03-05T09:17:36.927Z,15.75
2024-03-05T09:20:15.003Z,14.23
2024-03-05T09:22:43.810Z,16.77
2024-03-05T09:25:10.254Z,17.40
2024-03-05T09:27:38.796Z,17.60
2024-03-05T09:30:06.468Z,19.02
2024-03-05T09:32:33.667Z,15.95
2024-03-05T09:35:00.586Z,14.93
2024-03-05T09:37:29.552Z,16.58
2024-03-05T09:39:56.277Z,18.83
2024-03-05T09:42:23.202Z,14.73
2024-03-05T09:44:51.404Z,13.90
2024-03-05T09:47:18.351Z,14.73
2024-03-05T09:49:46.091Z,15.20
2024-03-05T09:52:14.637Z,14.07
2024-03-05T09:54:42.926Z,14.05
2024-03-05T09:57:09.333Z,15.80
2024-03-05T09:59:40.132Z,18.08
2024-03-05T10:02:09.291Z,12.27
2024-03-05T10:04:37.706Z,17.33
2024-03-05T10:07:07.724Z,15.52
2024-03-05T10:09:36.075Z,14.77
2024-03-05T10:12:04.311Z,12.10
2024-03-05T10:14:30.931Z,14.93
2024-03-05T10:17:02.302Z,13.20
2024-03-05T10:19:29.513Z,13.68
2024-03-05T10:22:09.465Z,12.60
2024-03-05T10:24:36.998Z,13.02
2024-03-05T10:27:03.794Z,14.38
2024-03-05T10:29:39.794Z,11.30
2024-03-05T10:32:08.284Z,19.58
2024-03-05T10:34:43.468Z,19.40
2024-03-05T10:37:11.147Z,12.93
2024-03-05T10:39:37.784Z,16.63
2024-03-05T10:42:07.316Z,11.57
2024-03-05T10:44:36.272Z,11.15
2024-03-05T10:47:04.780Z,13.52
2024-03-05T10:49:31.479Z,14.20
2024-03-05T10:52:01.769Z,13.18
2024-03-05T10:54:28.830Z,13.20
2024-03-05T10:56:56.935Z,13.35
2024-03-05T10:59:41.356Z,13.50
2024-03-05T11:02:12.831Z,14.55
2024-03-05T11:04:43.751Z,12.93
2024-03-05T11:07:12.220Z,15.88
2024-03-05T11:09:39.935Z,14.75
2024-03-05T11:12:13.960Z,15.00
2024-03-05T11:14:40.661Z,10.48
2024-03-05T11:17:11.526Z,11.35
2024-03-05T11:19:40.357Z,11.40
2024-03-05T11:22:24.851Z,11.82
2024-03-05T11:24:59.041Z,11.18
2024-03-05T11:27:32.509Z,12.02
2024-03-05T11:30:22.297Z,13.52
2024-03-05T11:32:52.160Z,11.98
2024-03-05T11:35:22.168Z,10.90
2024-03-05T11:37:53.404Z,13.02
2024-03-05T11:42:49.278Z,11.20
2024-03-05T11:45:43.357Z,11.65
2024-03-05T11:48:12.089Z,10.40
2024-03-05T11:50:39.497Z,10.90
2024-03-05T11:53:11.731Z,10.93
2024-03-05T11:55:38.773Z,10.38
2024-03-05T11:58:08.734Z,10.52
2024-03-05T12:00:37.025Z,8.40
2024-03-05T12:03:10.471Z,10.02
2024-03-05T12:05:43.478Z,11.43
2024-03-05T12:08:09.903Z,9.70
2024-03-05T12:10:37.591Z,9.52
2024-03-05T12:13:05.158Z,9.05
2024-03-05T12:15:36.650Z,8.50
2024-03-05T12:18:11.908Z,11.05
2024-03-05T12:20:47.655Z,13.57
2024-03-05T12:23:14.149Z,9.98
2024-03-05T12:26:00.977Z,10.93
2024-03-05T12:28:27.685Z,12.40
2024-03-05T12:30:56.311Z,9.52
2024-03-05T12:33:27.806Z,10.02
2024-03-05T12:35:57.065Z,9.18
2024-03-05T12:38:24.017Z,11.88
2024-03-05T12:40:59.808Z,7.80
2024-03-05T12:43:29.892Z,10.27
2024-03-05T12:46:03.740Z,10.70
2024-03-05T12:48:33.455Z,10.07
2024-03-05T12:51:00.803Z,10.00
2024-03-05T12:53:27.813Z,10.05
2024-03-05T12:56:02.385Z,12.18
2024-03-05T12:58:42.494Z,8.98
2024-03-05T13:01:11.737Z,10.02
2024-03-05T13:03:38.829Z,10.38
2024-03-05T13:06:05.630Z,9.65
2024-03-05T13:08:32.066Z,9.93
2024-03-05T13:10:58.879Z,10.00
2024-03-05T13:13:25.412Z,8.48
2024-03-05T13:15:51.856Z,10.15
2024-03-05T13:18:18.351Z,8.68
2024-03-05T13:20:44.959Z,8.90
2024-03-05T13:23:11.507Z,10.75
2024-03-05T13:25:38.001Z,8.80
2024-03-05T13:28:06.451Z,9.05
2024-03-05T13:30:33.353Z,9.98
2024-03-05T13:33:03.766Z,9.38
2024-03-05T13:35:31.802Z,8.35
2024-03-05T13:37:58.649Z,9.90
2024-03-05T13:40:25.570Z,9.20
2024-03-05T13:42:52.197Z,8.93
2024-03-05T13:45:19.418Z,9.20
2024-03-05T13:47:46.718Z,10.27
2024-03-05T13:50:14.596Z,10.23
2024-03-05T13:52:45.203Z,8.35
2024-03-05T13:55:12.950Z,10.80
2024-03-05T13:57:39.858Z,9.18
2024-03-05T14:00:10.066Z,9.40
2024-03-05T14:02:36.905Z,10.98
2024-03-05T14:05:04.250Z,10.63
2024-03-05T14:07:31.809Z,8.65
2024-03-05T14:09:58.803Z,8.63
2024-03-05T14:12:25.453Z,10.45
2024-03-05T14:14:51.905Z,9.27
2024-03-05T14:17:18.595Z,8.48
2024-03-05T14:19:45.219Z,9.25
2024-03-05T14:22:12.426Z,9.75
2024-03-05T14:24:39.197Z,9.13
2024-03-05T14:27:06.334Z,7.63
2024-03-05T14:29:32.888Z,9.23
2024-03-05T14:31:59.952Z,7.63
2024-03-05T14:34:28.482Z,9.93
2024-03-05T14:36:54.997Z,8.82
2024-03-05T14:39:22.285Z,9.15
2024-03-05T14:41:49.076Z,8.25
2024-03-05T14:44:15.627Z,9.15
2024-03-05T14:46:42.570Z,10.80
2024-03-05T14:49:09.125Z,8.30
2024-03-05T14:51:36.281Z,10.55
2024-03-05T14:54:03.526Z,8.63
2024-03-05T14:56:33.687Z,11.43
2024-03-05T14:59:00.172Z,12.32
2024-03-05T15:01:26.985Z,12.45
2024-03-05T15:03:53.660Z,12.50
2024-03-05T15:06:20.864Z,11.65
2024-03-05T15:08:47.510Z,11.32
2024-03-05T15:11:14.591Z,11.10
2024-03-05T15:13:41.503Z,13.10
2024-03-05T15:16:09.021Z,15.57
2024-03-05T15:18:36.555Z,12.45
2024-03-05T15:21:14.959Z,12.60
2024-03-05T15:23:42.319Z,10.90
2024-03-05T15:26:10.318Z,10.65
2024-03-05T15:28:37.869Z,11.23
2024-03-05T15:31:10.451Z,9.48
2024-03-05T15:33:40.758Z,12.90
2024-03-05T15:36:08.023Z,11.32
2024-03-05T15:38:35.423Z,9.73
2024-03-05T15:41:03.927Z,11.63
2024-03-05T15:43:32.254Z,11.02
2024-03-05T15:45:58.819Z,11.80
2024-03-05T15:48:25.270Z,11.07
2024-03-05T15:50:52.959Z,11.27
2024-03-05T15:53:24.074Z,12.25
2024-03-05T15:55:59.523Z,12.45
2024-03-05T15:58:43.963Z,13.10
2024-03-05T16:01:11.178Z,13.25
2024-03-05T16:03:47.579Z,11.02
2024-03-05T16:06:20.227Z,11.95
2024-03-05T16:08:47.437Z,14.68
2024-03-05T16:11:14.095Z,11.63
2024-03-05T16:13:41.125Z,13.77
2024-03-05T16:16:08.663Z,12.35
2024-03-05T16:18:35.219Z,13.75
2024-03-05T16:21:03.160Z,10.82
2024-03-05T16:23:29.661Z,10.75
2024-03-05T16:25:56.915Z,11.45
2024-03-05T16:28:23.520Z,10.57
2024-03-05T16:30:50.085Z,9.82
2024-03-05T16:33:16.497Z,10.63
2024-03-05T16:35:44.522Z,11.00
2024-03-05T16:38:14.837Z,9.75
2024-03-05T16:40:44.790Z,10.48
2024-03-05T16:43:12.830Z,11.27
2024-03-05T16:45:39.697Z,12.25
2024-03-05T16:48:09.337Z,11.52
2024-03-05T16:50:36.115Z,11.18
2024-03-05T16:53:02.858Z,12.38
2024-03-05T16:55:30.052Z,9.10
2024-03-05T16:58:00.079Z,11.63
2024-03-05T17:00:42.280Z,9.52
2024-03-05T17:03:12.510Z,12.27
2024-03-05T17:05:41.730Z,8.70
2024-03-05T17:08:15.162Z,9.57
2024-03-05T17:10:43.964Z,11.00
2024-03-05T17:13:18.654Z,9.63
2024-03-05T17:15:46.845Z,9.40
2024-03-05T17:18:15.481Z,8.02
2024-03-05T17:20:42.358Z,10.70
2024-03-05T17:23:14.636Z,11.48
2024-03-05T17:25:43.450Z,11.75
2024-03-05T17:28:12.013Z,9.45
2024-03-05T17:30:42.650Z,10.65
2024-03-05T17:33:13.749Z,9.63
2024-03-05T17:35:41.986Z,11.93
2024-03-05T17:38:10.930Z,12.30
2024-03-05T17:40:37.692Z,9.63
2024-03-05T17:43:05.096Z,10.27
2024-03-05T17:45:33.199Z,10.55
2024-03-05T17:48:06.049Z,9.18
2024-03-05T17:50:33.261Z,10.98
2024-03-05T17:53:00.026Z,11.02
2024-03-05T17:55:26.740Z,10.18
2024-03-05T17:57:53.466Z,11.50
2024-03-05T18:00:41.405Z,10.40
2024-03-05T18:03:08.213Z,10.70
2024-03-05T18:05:35.923Z,10.43
2024-03-05T18:08:02.521Z,11.77
2024-03-05T18:10:30.399Z,12.27
2024-03-05T18:12:57.321Z,10.15
2024-03-05T18:15:25.453Z,10.90
2024-03-05T18:17:55.931Z,11.80
2024-03-05T18:20:22.455Z,11.20
2024-03-05T18:22:50.086Z,11.65
2024-03-05T18:25:21.043Z,10.98
2024-03-05T18:27:49.911Z,13.50
2024-03-05T18:30:24.793Z,10.30
2024-03-05T18:32:53.127Z,13.10
2024-03-05T18:35:22.860Z,12.43
2024-03-05T18:37:49.930Z,12.93
2024-03-05T18:40:16.752Z,11.23
2024-03-05T18:42:46.292Z,13.20
2024-03-05T18:45:17.035Z,12.88
2024-03-05T18:47:54.463Z,14.20
2024-03-05T18:50:29.839Z,13.95
2024-03-05T18:52:58.313Z,15.73
2024-03-05T18:55:25.543Z,13.90
2024-03-05T18:57:52.722Z,13.23
2024-03-05T19:00:19.640Z,16.55
2024-03-05T19:02:47.295Z,17.10
2024-03-05T19:05:14.079Z,16.20
2024-03-05T19:07:44.708Z,16.38
2024-03-05T19:10:11.490Z,17.60
2024-03-05T19:12:38.733Z,15.52
2024-03-05T19:15:05.655Z,13.48
2024-03-05T19:17:32.616Z,14.30
2024-03-05T19:20:02.408Z,16.95
2024-03-05T19:22:30.097Z,16.40
2024-03-05T19:24:57.224Z,15.88
2024-03-05T19:27:24.872Z,16.80
2024-03-05T19:29:52.303Z,16.02
2024-03-05T19:32:22.082Z,15.55
2024-03-05T19:34:49.255Z,15.15
2024-03-05T19:37:16.953Z,14.80
2024-03-05T19:39:43.378Z,16.63
2024-03-05T19:42:13.831Z,16.08
2024-03-05T19:44:40.370Z,17.15
2024-03-05T19:47:07.000Z,18.55
2024-03-05T19:49:33.537Z,18.55
2024-03-05T19:52:00.436Z,18.25
2024-03-05T19:54:29.137Z,15.00
2024-03-05T19:56:56.894Z,19.25
2024-03-05T19:59:23.699Z,17.05
2024-03-05T20:01:50.231Z,17.10
2024-03-05T20:04:17.301Z,16.77
2024-03-05T20:06:44.590Z,17.73
2024-03-05T20:09:11.850Z,22.00
2024-03-05T20:11:39.056Z,20.55
2024-03-05T20:14:06.143Z,16.92
2024-03-05T20:16:32.761Z,18.13
2024-03-05T20:18:59.311Z,19.00
2024-03-05T20:21:25.787Z,19.00
2024-03-05T20:23:55.044Z,16.88
2024-03-05T20:26:21.620Z,18.45
2024-03-05T20:28:50.134Z,17.02
2024-03-05T20:31:21.591Z,18.88
2024-03-05T20:36:15.231Z,18.02
2024-03-05T20:38:43.034Z,15.55
2024-03-05T20:41:09.858Z,18.65
2024-03-05T20:43:36.862Z,17.60
2024-03-05T20:46:04.299Z,17.45
2024-03-05T20:48:31.094Z,16.15
2024-03-05T20:50:57.627Z,21.17
2024-03-05T20:53:24.174Z,16.63
2024-03-05T20:55:51.147Z,18.50
2024-03-05T20:58:19.699Z,19.30
2024-03-05T21:00:46.298Z,21.00
2024-03-05T21:03:12.868Z,18.45
2024-03-05T21:05:41.832Z,16.85
2024-03-05T21:08:08.579Z,21.38
2024-03-05T21:10:35.177Z,17.70
2024-03-05T21:13:02.109Z,21.20
2024-03-05T21:15:28.654Z,19.70
2024-03-05T21:17:55.271Z,16.58
2024-03-05T21:20:22.044Z,19.67
2024-03-05T21:22:48.831Z,17.67
2024-03-05T21:25:15.935Z,17.05
2024-03-05T21:27:42.891Z,17.83
2024-03-05T21:30:13.149Z,20.45
2024-03-05T21:32:43.948Z,17.20
2024-03-05T21:35:10.909Z,16.75
2024-03-05T21:37:38.801Z,16.75
2024-03-05T21:40:07.225Z,17.73
2024-03-05T21:42:34.042Z,18.60
2024-03-05T21:45:00.641Z,18.35
2024-03-05T21:47:27.465Z,18.77
2024-03-05T21:49:54.178Z,19.23
2024-03-05T21:52:20.657Z,18.98
2024-03-05T21:54:47.188Z,15.98
2024-03-05T21:57:13.662Z,17.77
2024-03-05T21:59:40.123Z,18.08
2024-03-05T22:02:07.802Z,20.95
2024-03-05T22:04:34.734Z,17.65
2024-03-05T22:07:01.469Z,16.75
2024-03-05T22:09:28.057Z,18.45
2024-03-05T22:11:54.570Z,16.10
2024-03-05T22:14:21.062Z,19.95
2024-03-05T22:16:47.647Z,18.33
2024-03-05T22:19:14.270Z,17.67
2024-03-05T22:21:40.773Z,17.40
2024-03-05T22:24:07.896Z,19.42
2024-03-05T22:26:34.702Z,19.45
2024-03-05T22:29:01.934Z,18.70
2024-03-05T22:31:31.014Z,16.98
2024-03-05T22:33:57.707Z,16.20
2024-03-05T22:36:25.111Z,19.75
2024-03-05T22:38:51.942Z,19.60
2024-03-05T22:41:18.747Z,17.50
2024-03-05T22:43:45.310Z,21.02
2024-03-05T22:46:11.882Z,21.85
2024-03-05T22:48:39.739Z,17.42
2024-03-05T22:51:08.912Z,20.17
2024-03-05T22:53:35.829Z,16.25
2024-03-05T22:56:02.497Z,18.08
2024-03-05T22:58:29.043Z,18.30
2024-03-05T23:00:59.602Z,19.70
2024-03-05T23:03:27.339Z,16.65
2024-03-05T23:05:55.846Z,22.13
2024-03-05T23:08:22.364Z,20.92
2024-03-05T23:10:49.633Z,20.10
2024-03-05T23:13:16.308Z,20.23
2024-03-05T23:15:43.343Z,20.75
2024-03-05T23:18:10.154Z,19.63
2024-03-05T23:20:36.726Z,20.10
2024-03-05T23:23:03.416Z,21.88
2024-03-05T23:25:30.216Z,20.23
2024-03-05T23:27:58.552Z,19.83
2024-03-05T23:30:26.844Z,21.67
2024-03-05T23:32:54.043Z,20.30
2024-03-05T23:35:20.889Z,21.67
2024-03-05T23:37:47.768Z,21.13
2024-03-05T23:40:14.849Z,20.70
2024-03-05T23:42:41.465Z,22.98
2024-03-05T23:45:08.421Z,23.25
2024-03-05T23:47:34.948Z,22.52
2024-03-05T23:50:01.639Z,19.80
2024-03-05T23:52:29.174Z,20.80
2024-03-05T23:54:58.979Z,22.02
2024-03-05T23:57:28.486Z,21.98
2024-03-05T23:59:55.116Z,20.23
